This is the latest recevied weather packets stored in our database for station/object F1ZTH-10. If no packets are shown the sender has not sent any weather packets the latest 10 day(s).
| Time | Temp. | Humidity | Pressure | Rain* | Wind** | Luminosity | Snow |
|---|---|---|---|---|---|---|---|
| 1777499857 | 15.56° C | 67% | 976 hPa | - | - | - | - |
| 1777498957 | 16.11° C | 66% | 976 hPa | - | - | - | - |
| 1777498057 | 16.11° C | 66% | 976 hPa | - | - | - | - |
| 1777497157 | 16.67° C | 66% | 976 hPa | - | - | - | - |
| 1777496257 | 16.67° C | 66% | 976 hPa | - | - | - | - |
| 1777495357 | 16.67° C | 66% | 975 hPa | - | - | - | - |
| 1777494457 | 17.22° C | 66% | 975 hPa | - | - | - | - |
| 1777493557 | 17.78° C | 65% | 975 hPa | - | - | - | - |
| 1777492656 | 18.33° C | 65% | 975 hPa | - | - | - | - |
| 1777491756 | 18.89° C | 64% | 975 hPa | - | - | - | - |
| 1777490856 | 19.44° C | 64% | 975 hPa | - | - | - | - |
| 1777489956 | 20° C | 64% | 975 hPa | - | - | - | - |
| 1777489056 | 20.56° C | 62% | 974 hPa | - | - | - | - |
| 1777488156 | 21.67° C | 60% | 974 hPa | - | - | - | - |
| 1777486356 | 25.56° C | 56% | 974 hPa | - | - | - | - |
| 1777485456 | 27.78° C | 54% | 974 hPa | - | - | - | - |
| 1777484556 | 28.89° C | 52% | 974 hPa | - | - | - | - |
| 1777483656 | 29.44° C | 52% | 974 hPa | - | - | - | - |
| 1777482756 | 30.56° C | 51% | 974 hPa | - | - | - | - |
| 1777481856 | 30.56° C | 51% | 974 hPa | - | - | - | - |
| 1777480956 | 30° C | 52% | 974 hPa | - | - | - | - |
| 1777480056 | 29.44° C | 53% | 974 hPa | - | - | - | - |
| 1777479156 | 27.78° C | 56% | 974 hPa | - | - | - | - |
| 1777478256 | 26.67° C | 57% | 974 hPa | - | - | - | - |
| 1777477356 | 27.78° C | 55% | 974 hPa | - | - | - | - |
* Rain since midnight (hover to see other rain measurements)
** Current wind speed in m/s (hover to see current wind gust speed)